createdAt,value
2022-11-17T00:01:38.358Z,7.84
2022-11-17T00:04:46.361Z,7.84
2022-11-17T00:07:51.919Z,7.86
2022-11-17T00:11:04.673Z,7.83
2022-11-17T00:14:30.092Z,7.85
2022-11-17T00:17:39.066Z,7.71
2022-11-17T00:21:06.718Z,7.86
2022-11-17T00:24:12.668Z,7.75
2022-11-17T00:27:20.282Z,7.76
2022-11-17T00:30:46.300Z,7.78
2022-11-17T00:34:08.458Z,7.63
2022-11-17T00:37:16.448Z,7.61
2022-11-17T00:40:28.185Z,7.56
2022-11-17T00:43:36.335Z,7.55
2022-11-17T00:46:46.395Z,7.58
2022-11-17T00:49:56.649Z,7.56
2022-11-17T00:53:03.942Z,7.47
2022-11-17T00:56:12.222Z,7.47
2022-11-17T00:59:19.255Z,7.59
2022-11-17T01:02:28.085Z,7.67
2022-11-17T01:05:36.524Z,7.59
2022-11-17T01:08:49.689Z,7.54
2022-11-17T01:11:54.966Z,7.41
2022-11-17T01:15:02.319Z,7.43
2022-11-17T01:18:11.968Z,7.40
2022-11-17T01:21:23.157Z,7.32
2022-11-17T01:24:28.403Z,7.29
2022-11-17T01:27:35.977Z,7.25
2022-11-17T01:30:42.475Z,7.29
2022-11-17T01:33:49.426Z,7.43
2022-11-17T01:37:14.221Z,7.35
2022-11-17T01:40:22.150Z,7.36
2022-11-17T01:43:50.611Z,7.39
2022-11-17T01:47:01.205Z,7.35
2022-11-17T01:50:12.882Z,7.34
2022-11-17T01:53:21.243Z,7.28
2022-11-17T01:56:30.157Z,7.31
2022-11-17T01:59:39.816Z,7.26
2022-11-17T02:02:45.571Z,7.26
2022-11-17T02:05:56.777Z,7.29
2022-11-17T02:09:06.514Z,7.30
2022-11-17T02:12:15.651Z,7.26
2022-11-17T02:15:24.227Z,7.32
2022-11-17T02:18:30.472Z,7.29
2022-11-17T02:21:45.982Z,7.22
2022-11-17T02:24:54.990Z,7.20
2022-11-17T02:28:42.667Z,7.29
2022-11-17T02:31:51.165Z,7.32
2022-11-17T02:35:20.413Z,7.35
2022-11-17T02:38:31.425Z,7.34
2022-11-17T02:41:54.150Z,7.36
2022-11-17T02:45:03.834Z,7.34
2022-11-17T02:48:14.211Z,7.24
2022-11-17T02:51:24.863Z,7.27
2022-11-17T02:54:33.734Z,7.33
2022-11-17T02:57:40.803Z,7.32
2022-11-17T03:01:09.808Z,7.29
2022-11-17T03:04:32.257Z,7.26
2022-11-17T03:07:44.878Z,7.13
2022-11-17T03:11:06.000Z,7.18
2022-11-17T03:14:21.023Z,7.24
2022-11-17T03:17:32.940Z,7.21
2022-11-17T03:20:45.851Z,7.10
2022-11-17T03:24:17.433Z,6.97
2022-11-17T03:27:36.992Z,6.92
2022-11-17T03:30:48.322Z,6.73
2022-11-17T03:33:55.449Z,6.61
2022-11-17T03:37:04.959Z,6.59
2022-11-17T03:40:13.367Z,6.51
2022-11-17T03:43:22.750Z,6.48
2022-11-17T03:46:33.011Z,6.54
2022-11-17T03:49:42.147Z,6.57
2022-11-17T03:52:53.728Z,6.50
2022-11-17T03:56:10.104Z,6.48
2022-11-17T03:59:23.664Z,6.51
2022-11-17T04:02:30.115Z,6.49
2022-11-17T04:05:38.967Z,6.49
2022-11-17T04:08:46.377Z,6.45
2022-11-17T04:12:14.225Z,6.40
2022-11-17T04:15:53.981Z,6.46
2022-11-17T04:19:01.013Z,6.43
2022-11-17T04:22:09.201Z,6.54
2022-11-17T04:25:38.140Z,6.50
2022-11-17T04:28:46.735Z,6.51
2022-11-17T04:31:56.788Z,6.51
2022-11-17T04:35:04.223Z,6.45
2022-11-17T04:38:10.824Z,6.38
2022-11-17T04:41:36.689Z,6.39
2022-11-17T04:44:43.914Z,6.48
2022-11-17T04:47:50.873Z,6.51
2022-11-17T04:50:59.071Z,6.52
2022-11-17T04:54:06.276Z,6.52
2022-11-17T04:57:12.939Z,6.71
2022-11-17T05:00:19.494Z,6.77
2022-11-17T05:03:28.155Z,6.75
2022-11-17T05:06:34.366Z,6.80
2022-11-17T05:09:44.370Z,6.77
2022-11-17T05:13:10.293Z,6.75
2022-11-17T05:16:37.216Z,6.77
2022-11-17T05:19:44.455Z,6.79
2022-11-17T05:23:09.535Z,6.87
2022-11-17T05:26:15.567Z,6.85
2022-11-17T05:29:22.993Z,6.86
2022-11-17T05:32:27.839Z,6.87
2022-11-17T05:35:32.662Z,6.85
2022-11-17T05:38:39.184Z,6.88
2022-11-17T05:41:50.084Z,6.87
2022-11-17T05:44:55.552Z,6.81
2022-11-17T05:48:02.082Z,6.77
2022-11-17T05:51:05.722Z,6.87
2022-11-17T05:54:10.850Z,6.84
2022-11-17T05:57:18.413Z,6.84
2022-11-17T06:00:23.394Z,6.83
2022-11-17T06:03:34.058Z,6.83
2022-11-17T06:06:38.564Z,6.90
2022-11-17T06:09:42.262Z,6.99
2022-11-17T06:12:46.041Z,6.93
2022-11-17T06:15:50.092Z,7.05
2022-11-17T06:19:02.815Z,7.08
2022-11-17T06:22:12.988Z,6.96
2022-11-17T06:25:20.338Z,7.09
2022-11-17T06:28:25.134Z,7.01
2022-11-17T06:31:32.889Z,6.94
2022-11-17T06:34:37.700Z,7.08
2022-11-17T06:37:40.741Z,7.09
2022-11-17T06:40:44.393Z,7.18
2022-11-17T06:43:49.621Z,7.18
2022-11-17T06:46:54.103Z,7.10
2022-11-17T06:49:56.997Z,6.97
2022-11-17T06:53:01.213Z,6.90
2022-11-17T06:56:12.003Z,6.87
2022-11-17T06:59:16.156Z,6.81
2022-11-17T07:02:18.887Z,6.77
2022-11-17T07:05:22.757Z,6.85
2022-11-17T07:08:27.245Z,6.87
2022-11-17T07:11:30.452Z,7.06
2022-11-17T07:14:34.186Z,7.05
2022-11-17T07:17:37.664Z,7.16
2022-11-17T07:20:40.483Z,7.18
2022-11-17T07:23:45.057Z,7.32
2022-11-17T07:26:47.976Z,7.63
2022-11-17T07:29:50.791Z,7.72
2022-11-17T07:32:55.097Z,7.77
2022-11-17T07:36:05.492Z,7.90
2022-11-17T07:39:10.553Z,7.85
2022-11-17T07:42:14.293Z,7.84
2022-11-17T07:45:17.278Z,8.02
2022-11-17T07:48:20.602Z,8.12
2022-11-17T07:51:24.938Z,8.28
2022-11-17T07:54:28.857Z,8.23
2022-11-17T07:57:31.435Z,8.12
2022-11-17T08:00:35.176Z,8.40
2022-11-17T08:03:38.986Z,8.38
2022-11-17T08:06:42.295Z,8.54
2022-11-17T08:09:45.895Z,8.76
2022-11-17T08:12:51.451Z,8.93
2022-11-17T08:15:59.233Z,8.88
2022-11-17T08:19:04.913Z,8.95
2022-11-17T08:22:10.164Z,9.11
2022-11-17T08:25:14.773Z,9.08
2022-11-17T08:28:19.113Z,9.00
2022-11-17T08:31:22.814Z,8.96
2022-11-17T08:34:26.355Z,8.92
2022-11-17T08:37:30.805Z,8.90
2022-11-17T08:40:34.866Z,8.86
2022-11-17T08:43:37.738Z,8.73
2022-11-17T08:46:42.006Z,8.66
2022-11-17T08:49:48.342Z,8.79
2022-11-17T08:52:53.163Z,8.92
2022-11-17T08:55:58.518Z,9.00
2022-11-17T08:59:02.633Z,9.04
2022-11-17T09:02:05.861Z,8.91
2022-11-17T09:05:09.308Z,8.80
2022-11-17T09:08:45.134Z,8.62
2022-11-17T09:11:39.618Z,8.74
2022-11-17T09:14:43.975Z,8.83
2022-11-17T09:17:48.512Z,8.86
2022-11-17T09:20:51.587Z,8.78
2022-11-17T09:23:54.811Z,8.74
2022-11-17T09:26:57.698Z,8.78
2022-11-17T09:30:01.205Z,8.78
2022-11-17T09:33:03.839Z,8.81
2022-11-17T09:36:08.532Z,8.70
2022-11-17T09:39:13.116Z,8.76
2022-11-17T09:42:18.675Z,8.96
2022-11-17T09:45:25.454Z,8.94
2022-11-17T09:48:51.979Z,9.00
2022-11-17T09:51:58.524Z,9.07
2022-11-17T09:55:09.134Z,9.15
2022-11-17T09:58:31.316Z,9.12
2022-11-17T10:01:35.055Z,9.12
2022-11-17T10:04:38.494Z,9.16
2022-11-17T10:07:47.358Z,9.18
2022-11-17T10:10:52.212Z,9.31
2022-11-17T10:13:55.150Z,9.30
2022-11-17T10:17:01.243Z,9.40
2022-11-17T10:20:14.774Z,9.35
2022-11-17T10:23:19.933Z,9.50
2022-11-17T10:26:23.594Z,9.50
2022-11-17T10:29:27.194Z,9.53
2022-11-17T10:32:31.277Z,9.46
2022-11-17T10:35:35.494Z,9.39
2022-11-17T10:38:43.986Z,9.39
2022-11-17T10:41:50.993Z,9.65
2022-11-17T10:44:55.588Z,9.68
2022-11-17T10:48:07.863Z,9.69
2022-11-17T10:51:17.158Z,9.90
2022-11-17T10:54:23.817Z,9.86
2022-11-17T10:57:26.900Z,9.92
2022-11-17T11:00:32.620Z,10.09
2022-11-17T11:03:37.318Z,10.11
2022-11-17T11:06:42.057Z,10.22
2022-11-17T11:10:09.106Z,10.14
2022-11-17T11:13:20.943Z,10.11
2022-11-17T11:16:26.154Z,9.89
2022-11-17T11:19:29.578Z,10.17
2022-11-17T11:22:32.420Z,10.14
2022-11-17T11:25:41.232Z,10.24
2022-11-17T11:28:55.400Z,10.45
2022-11-17T11:32:24.418Z,10.80
2022-11-17T11:35:40.208Z,10.78
2022-11-17T11:38:52.696Z,10.86
2022-11-17T11:42:08.499Z,10.85
2022-11-17T11:45:15.033Z,10.70
2022-11-17T11:48:28.215Z,10.78
2022-11-17T11:51:36.415Z,10.72
2022-11-17T11:54:51.161Z,10.29
2022-11-17T11:58:20.953Z,10.22
2022-11-17T12:01:24.255Z,10.73
2022-11-17T12:04:36.694Z,10.55
2022-11-17T12:07:51.259Z,10.79
2022-11-17T12:10:58.611Z,10.94
2022-11-17T12:14:02.201Z,10.95
2022-11-17T12:17:04.845Z,11.00
2022-11-17T12:20:25.987Z,10.86
2022-11-17T12:23:39.686Z,11.07
2022-11-17T12:26:42.178Z,11.29
2022-11-17T12:29:45.930Z,11.34
2022-11-17T12:32:51.714Z,11.33
2022-11-17T12:36:13.461Z,11.24
2022-11-17T12:39:36.491Z,10.99
2022-11-17T12:43:01.553Z,11.04
2022-11-17T12:46:14.145Z,11.09
2022-11-17T12:49:27.353Z,11.33
2022-11-17T12:52:36.414Z,11.85
2022-11-17T12:55:42.977Z,11.67
2022-11-17T12:58:48.282Z,11.17
2022-11-17T13:02:11.288Z,11.08
2022-11-17T13:05:20.187Z,11.02
2022-11-17T13:08:24.212Z,11.07
2022-11-17T13:11:27.002Z,10.87
2022-11-17T13:14:30.926Z,10.39
2022-11-17T13:17:38.757Z,10.74
2022-11-17T13:20:41.424Z,11.08
2022-11-17T13:23:45.108Z,10.95
2022-11-17T13:26:57.989Z,10.51
2022-11-17T13:30:21.541Z,10.75
2022-11-17T13:33:25.423Z,11.16
2022-11-17T13:36:28.521Z,11.03
2022-11-17T13:39:31.677Z,10.94
2022-11-17T13:42:35.767Z,10.84
2022-11-17T13:45:43.856Z,10.57
2022-11-17T13:48:49.860Z,10.29
2022-11-17T13:51:54.929Z,10.07
2022-11-17T13:54:58.380Z,9.78
2022-11-17T13:58:03.829Z,9.71
2022-11-17T14:01:11.302Z,9.56
2022-11-17T14:04:20.301Z,9.52
2022-11-17T14:07:29.879Z,9.64
2022-11-17T14:10:34.741Z,9.66
2022-11-17T14:13:40.171Z,9.51
2022-11-17T14:16:46.107Z,9.59
2022-11-17T14:19:50.353Z,9.61
2022-11-17T14:23:04.475Z,9.67
2022-11-17T14:26:16.909Z,9.65
2022-11-17T14:29:21.165Z,9.59
2022-11-17T14:32:24.441Z,9.45
2022-11-17T14:35:27.944Z,9.42
2022-11-17T14:38:31.960Z,9.45
2022-11-17T14:41:36.329Z,9.44
2022-11-17T14:44:40.030Z,9.47
2022-11-17T14:47:44.519Z,9.48
2022-11-17T14:50:48.070Z,9.44
2022-11-17T14:53:51.309Z,9.36
2022-11-17T14:56:55.061Z,9.29
2022-11-17T15:00:00.101Z,9.25
2022-11-17T15:03:04.697Z,9.20
2022-11-17T15:06:12.125Z,9.21
2022-11-17T15:09:20.729Z,9.16
2022-11-17T15:12:24.787Z,9.16
2022-11-17T15:15:28.879Z,9.01
2022-11-17T15:18:34.505Z,8.94
2022-11-17T15:21:39.292Z,8.94
2022-11-17T15:24:43.891Z,9.00
2022-11-17T15:27:48.212Z,9.05
2022-11-17T15:30:52.790Z,9.07
2022-11-17T15:33:57.927Z,9.05
2022-11-17T15:37:03.048Z,9.02
2022-11-17T15:40:08.613Z,8.91
2022-11-17T15:43:14.228Z,8.80
2022-11-17T15:46:20.739Z,8.77
2022-11-17T15:49:25.512Z,8.69
2022-11-17T15:52:56.752Z,8.59
2022-11-17T15:55:56.024Z,8.56
2022-11-17T15:59:06.232Z,8.58
2022-11-17T16:02:10.777Z,8.64
2022-11-17T16:05:15.692Z,8.65
2022-11-17T16:08:20.683Z,8.65
2022-11-17T16:11:27.769Z,8.69
2022-11-17T16:14:32.905Z,8.67
2022-11-17T16:17:38.888Z,8.68
2022-11-17T16:20:43.851Z,8.78
2022-11-17T16:23:54.104Z,8.84
2022-11-17T16:26:59.491Z,8.85
2022-11-17T16:30:04.134Z,8.84
2022-11-17T16:33:13.685Z,8.92
2022-11-17T16:36:20.861Z,8.90
2022-11-17T16:39:27.948Z,8.91
2022-11-17T16:42:33.183Z,8.95
2022-11-17T16:45:43.383Z,8.91
2022-11-17T16:48:50.466Z,8.91
2022-11-17T16:51:56.467Z,9.01
2022-11-17T16:55:05.701Z,9.00
2022-11-17T16:58:10.915Z,9.00
2022-11-17T17:01:20.790Z,8.99
2022-11-17T17:04:27.646Z,9.01
2022-11-17T17:07:33.701Z,9.27
2022-11-17T17:10:41.634Z,9.31
2022-11-17T17:13:49.964Z,9.25
2022-11-17T17:16:56.727Z,9.20
2022-11-17T17:20:01.768Z,9.18
2022-11-17T17:23:04.803Z,9.20
2022-11-17T17:26:14.023Z,9.25
2022-11-17T17:29:19.715Z,9.29
2022-11-17T17:32:25.812Z,9.31
2022-11-17T17:35:33.387Z,9.40
2022-11-17T17:38:37.578Z,9.46
2022-11-17T17:41:45.360Z,9.50
2022-11-17T17:44:49.569Z,9.57
2022-11-17T17:47:53.508Z,9.56
2022-11-17T17:51:07.049Z,9.52
2022-11-17T17:54:16.563Z,9.54
2022-11-17T17:57:20.805Z,9.55
2022-11-17T18:00:26.345Z,9.52
2022-11-17T18:03:36.551Z,9.50
2022-11-17T18:06:44.531Z,9.49
2022-11-17T18:09:52.140Z,9.55
2022-11-17T18:12:59.887Z,9.55
2022-11-17T18:16:14.141Z,9.54
2022-11-17T18:19:21.577Z,9.60
2022-11-17T18:22:29.403Z,9.58
2022-11-17T18:25:35.271Z,9.52
2022-11-17T18:28:45.597Z,9.50
2022-11-17T18:31:54.828Z,9.54
2022-11-17T18:35:00.461Z,9.54
2022-11-17T18:38:06.665Z,9.55
2022-11-17T18:41:16.386Z,9.53
2022-11-17T18:44:22.499Z,9.51
2022-11-17T18:47:25.994Z,9.51
2022-11-17T18:50:29.081Z,9.46
2022-11-17T18:53:33.327Z,9.47
2022-11-17T18:56:37.720Z,9.43
2022-11-17T18:59:43.749Z,9.31
2022-11-17T19:02:48.653Z,9.27
2022-11-17T19:05:54.271Z,9.31
2022-11-17T19:08:58.902Z,9.21
2022-11-17T19:12:03.028Z,9.13
2022-11-17T19:15:11.094Z,9.14
2022-11-17T19:18:19.961Z,9.13
2022-11-17T19:21:30.319Z,9.15
2022-11-17T19:24:37.098Z,9.10
2022-11-17T19:27:42.462Z,9.05
2022-11-17T19:30:49.439Z,9.02
2022-11-17T19:33:56.042Z,9.08
2022-11-17T19:37:01.810Z,9.08
2022-11-17T19:40:09.849Z,9.23
2022-11-17T19:43:19.648Z,9.09
2022-11-17T19:46:25.579Z,9.03
2022-11-17T19:49:30.960Z,9.04
2022-11-17T19:52:36.475Z,9.05
2022-11-17T19:55:41.759Z,9.01
2022-11-17T19:58:46.311Z,9.13
2022-11-17T20:01:50.874Z,9.04
2022-11-17T20:04:58.330Z,8.94
2022-11-17T20:08:03.526Z,8.88
2022-11-17T20:11:16.789Z,8.89
2022-11-17T20:14:21.498Z,8.88
2022-11-17T20:17:27.348Z,9.02
2022-11-17T20:20:31.951Z,8.94
2022-11-17T20:23:37.440Z,8.85
2022-11-17T20:26:47.846Z,8.93
2022-11-17T20:29:59.314Z,9.01
2022-11-17T20:33:03.366Z,8.89
2022-11-17T20:36:11.098Z,8.84
2022-11-17T20:39:18.431Z,8.87
2022-11-17T20:42:25.011Z,8.84
2022-11-17T20:45:31.024Z,8.82
2022-11-17T20:48:38.744Z,8.85
2022-11-17T20:51:47.790Z,8.86
2022-11-17T20:54:53.645Z,8.80
2022-11-17T20:58:03.221Z,8.77
2022-11-17T21:01:11.601Z,8.82
2022-11-17T21:04:17.907Z,8.74
2022-11-17T21:07:24.455Z,8.73
2022-11-17T21:10:32.482Z,8.77
2022-11-17T21:13:38.611Z,8.73
2022-11-17T21:16:49.817Z,8.72
2022-11-17T21:19:56.574Z,8.73
2022-11-17T21:23:08.007Z,8.71
2022-11-17T21:26:16.050Z,8.65
2022-11-17T21:29:23.857Z,8.58
2022-11-17T21:32:32.252Z,8.56
2022-11-17T21:35:37.138Z,8.54
2022-11-17T21:38:45.195Z,8.57
2022-11-17T21:41:53.148Z,8.54
2022-11-17T21:45:02.159Z,8.56
2022-11-17T21:48:09.945Z,8.59
2022-11-17T21:51:19.267Z,8.58
2022-11-17T21:54:25.023Z,8.57
2022-11-17T21:57:33.767Z,8.58
2022-11-17T22:00:43.912Z,8.56
2022-11-17T22:03:53.368Z,8.55
2022-11-17T22:06:58.190Z,8.53
2022-11-17T22:10:06.296Z,8.54
2022-11-17T22:13:13.644Z,8.55
2022-11-17T22:16:22.237Z,8.50
2022-11-17T22:19:29.987Z,8.51
2022-11-17T22:22:37.705Z,8.49
2022-11-17T22:25:45.822Z,8.41
2022-11-17T22:28:54.089Z,8.44
2022-11-17T22:32:00.287Z,8.40
2022-11-17T22:35:05.170Z,8.33
2022-11-17T22:38:11.001Z,8.33
2022-11-17T22:41:14.560Z,8.27
2022-11-17T22:44:20.075Z,8.18
2022-11-17T22:47:25.438Z,8.14
2022-11-17T22:50:31.363Z,8.13
2022-11-17T22:53:36.908Z,8.03
2022-11-17T22:56:43.945Z,7.95
2022-11-17T22:59:50.079Z,7.86
2022-11-17T23:02:54.864Z,7.78
2022-11-17T23:06:07.558Z,7.73
2022-11-17T23:09:14.188Z,7.71
2022-11-17T23:12:20.020Z,7.71
2022-11-17T23:15:23.715Z,7.65
2022-11-17T23:18:29.037Z,7.58
2022-11-17T23:21:33.312Z,7.52
2022-11-17T23:24:43.067Z,7.49
2022-11-17T23:27:49.487Z,7.44
2022-11-17T23:31:00.087Z,7.37
2022-11-17T23:34:10.094Z,7.29
2022-11-17T23:37:22.691Z,7.22
2022-11-17T23:40:32.151Z,7.14
2022-11-17T23:43:38.210Z,7.08
2022-11-17T23:46:44.817Z,7.03
2022-11-17T23:49:53.024Z,6.94
2022-11-17T23:53:02.302Z,6.86
2022-11-17T23:56:11.957Z,6.80
2022-11-17T23:59:21.618Z,6.71
